Time;durP1;ratioP1;P1;durP2;ratioP2;P2;SDS_P1;SDS_P2;PMS_P1;PMS_P2;Temp;Humidity;BMP_temperature;BMP_pressure;BME280_temperature;BME280_humidity;BME280_pressure;Samples;Min_cycle;Max_cycle;Signal;HPM_P1;HPM_P2
2022/06/20 00:00:35;;;;;;;5.60;2.90;;;;;;;;;;5033448;28;20036;-46
2022/06/20 00:03:00;;;;;;;6.15;2.90;;;;;;;;;;5033490;28;20038;-44
2022/06/20 00:05:34;;;;;;;4.10;2.50;;;;;;;;;;5028004;28;20112;-45
2022/06/20 00:08:00;;;;;;;9.98;3.17;;;;;;;;;;5028755;28;20040;-49
2022/06/20 00:10:28;;;;;;;6.03;3.20;;;;;;;;;;5034072;28;20036;-44
2022/06/20 00:12:55;;;;;;;10.27;3.28;;;;;;;;;;5034869;28;20112;-48
2022/06/20 00:15:28;;;;;;;6.35;3.05;;;;;;;;;;5030481;28;20051;-49
2022/06/20 00:17:54;;;;;;;7.57;3.38;;;;;;;;;;5027363;28;20124;-46
2022/06/20 00:20:20;;;;;;;6.55;3.40;;;;;;;;;;5030411;28;20041;-44
2022/06/20 00:22:46;;;;;;;3.53;2.65;;;;;;;;;;5034059;28;20037;-44
2022/06/20 00:25:12;;;;;;;6.90;2.88;;;;;;;;;;5030047;28;20085;-43
2022/06/20 00:27:38;;;;;;;4.40;2.58;;;;;;;;;;5027840;28;20049;-45
2022/06/20 00:30:05;;;;;;;5.35;2.70;;;;;;;;;;5034448;28;20044;-44
2022/06/20 00:32:30;;;;;;;10.48;2.88;;;;;;;;;;5024757;28;20114;-44
2022/06/20 00:34:56;;;;;;;6.82;2.53;;;;;;;;;;5032024;28;20113;-45
2022/06/20 00:37:22;;;;;;;6.15;2.67;;;;;;;;;;5020074;28;21091;-44
2022/06/20 00:39:49;;;;;;;4.97;3.45;;;;;;;;;;5036152;28;20712;-45
2022/06/20 00:42:16;;;;;;;5.07;2.60;;;;;;;;;;5032968;28;20058;-44
2022/06/20 00:44:48;;;;;;;6.65;2.83;;;;;;;;;;5026352;28;20440;-44
2022/06/20 00:47:15;;;;;;;;;;;;;;;;;;5031386;28;20049;-44
2022/06/20 00:49:50;;;;;;;3.80;2.70;;;;;;;;;;5036339;28;19974;-44
2022/06/20 00:52:22;;;;;;;4.35;2.72;;;;;;;;;;5030111;28;20111;-44
2022/06/20 00:54:58;;;;;;;4.57;2.67;;;;;;;;;;5032946;28;20592;-44
2022/06/20 00:57:31;;;;;;;5.30;2.47;;;;;;;;;;5028155;28;20389;-44
2022/06/20 01:00:22;;;;;;;6.88;2.80;;;;;;;;;;5030888;28;20407;-45
2022/06/20 01:03:01;;;;;;;7.40;2.55;;;;;;;;;;5029771;28;20025;-43
2022/06/20 01:05:45;;;;;;;4.82;2.72;;;;;;;;;;5027585;28;20037;-45
2022/06/20 01:08:18;;;;;;;3.63;2.50;;;;;;;;;;5028034;28;20029;-44
2022/06/20 01:10:59;;;;;;;5.00;2.72;;;;;;;;;;5033128;28;20033;-44
2022/06/20 01:13:26;;;;;;;3.78;2.55;;;;;;;;;;5032896;28;20111;-44
2022/06/20 01:15:55;;;;;;;3.45;2.60;;;;;;;;;;5030702;28;20063;-44
2022/06/20 01:18:24;;;;;;;3.53;2.75;;;;;;;;;;5028932;28;21889;-45
2022/06/20 01:20:52;;;;;;;4.68;2.65;;;;;;;;;;5028497;28;20072;-43
2022/06/20 01:23:55;;;;;;;4.82;2.78;;;;;;;;;;5030683;28;20021;-45
2022/06/20 01:26:35;;;;;;;4.95;2.70;;;;;;;;;;5027417;28;20041;-45
2022/06/20 01:29:03;;;;;;;6.95;2.80;;;;;;;;;;5038805;28;20060;-44
2022/06/20 01:31:33;;;;;;;5.55;2.70;;;;;;;;;;5030824;28;20021;-44
2022/06/20 01:34:01;;;;;;;5.97;2.60;;;;;;;;;;5032088;28;20537;-44
2022/06/20 01:39:17;;;;;;;5.80;2.97;;;;;;;;;;5028472;28;20060;-44
2022/06/20 01:44:31;;;;;;;7.78;3.47;;;;;;;;;;5030540;28;20038;-44
2022/06/20 01:46:57;;;;;;;8.45;2.80;;;;;;;;;;5036098;28;20546;-44
2022/06/20 01:49:24;;;;;;;3.80;2.63;;;;;;;;;;5032769;28;20117;-43
2022/06/20 01:51:59;;;;;;;6.32;2.90;;;;;;;;;;5032550;28;20031;-44
2022/06/20 01:54:29;;;;;;;6.75;2.60;;;;;;;;;;5031920;28;20041;-44
2022/06/20 01:56:55;;;;;;;2.75;2.50;;;;;;;;;;5031122;28;20033;-43
2022/06/20 01:59:34;;;;;;;5.05;3.13;;;;;;;;;;5027471;28;20034;-43
2022/06/20 02:01:59;;;;;;;5.75;2.72;;;;;;;;;;5029117;28;20139;-44
2022/06/20 02:04:30;;;;;;;9.60;3.00;;;;;;;;;;5029599;28;20382;-44
2022/06/20 02:06:56;;;;;;;4.63;3.15;;;;;;;;;;5033775;28;20029;-44
2022/06/20 02:09:22;;;;;;;6.00;3.45;;;;;;;;;;5027806;28;20477;-44
2022/06/20 02:11:48;;;;;;;9.90;4.25;;;;;;;;;;5029753;28;20021;-43
2022/06/20 02:14:19;;;;;;;10.57;3.30;;;;;;;;;;5033546;28;20162;-46
2022/06/20 02:16:49;;;;;;;8.43;3.38;;;;;;;;;;5030285;28;20040;-43
2022/06/20 02:19:24;;;;;;;6.45;4.05;;;;;;;;;;5025578;28;20041;-43
2022/06/20 02:21:53;;;;;;;8.60;3.75;;;;;;;;;;5030512;28;20025;-45
2022/06/20 02:24:20;;;;;;;8.63;3.65;;;;;;;;;;5032204;28;20053;-45
2022/06/20 02:26:50;;;;;;;8.38;3.80;;;;;;;;;;5026570;28;20033;-45
2022/06/20 02:29:22;;;;;;;6.75;3.90;;;;;;;;;;5033398;28;20021;-45
2022/06/20 02:31:52;;;;;;;;;;;;;;;;;;5033997;28;20029;-43
2022/06/20 02:34:18;;;;;;;13.45;3.63;;;;;;;;;;5024001;28;20363;-44
2022/06/20 02:36:44;;;;;;;9.52;4.22;;;;;;;;;;5030257;28;20060;-44
2022/06/20 02:39:11;;;;;;;8.38;3.75;;;;;;;;;;5030324;28;20029;-44
2022/06/20 02:41:39;;;;;;;6.57;3.47;;;;;;;;;;5033724;28;20057;-45
2022/06/20 02:44:13;;;;;;;9.75;3.83;;;;;;;;;;5030170;28;20910;-43
2022/06/20 02:46:41;;;;;;;6.47;3.63;;;;;;;;;;5028909;28;20033;-43
2022/06/20 02:49:09;;;;;;;4.18;3.15;;;;;;;;;;5025853;28;20029;-44
2022/06/20 02:51:41;;;;;;;4.68;3.65;;;;;;;;;;5029905;28;20028;-45
2022/06/20 02:54:12;;;;;;;5.30;3.75;;;;;;;;;;5026693;28;20045;-46
2022/06/20 02:56:43;;;;;;;7.07;3.78;;;;;;;;;;5025870;28;20044;-44
2022/06/20 02:59:34;;;;;;;7.97;3.70;;;;;;;;;;5031305;28;20056;-44
2022/06/20 03:02:08;;;;;;;8.50;3.30;;;;;;;;;;5032153;28;20040;-44
2022/06/20 03:04:36;;;;;;;6.97;3.67;;;;;;;;;;5022622;28;20033;-46
2022/06/20 03:07:12;;;;;;;3.60;3.30;;;;;;;;;;5025952;28;20160;-44
2022/06/20 03:09:40;;;;;;;3.88;3.53;;;;;;;;;;5028178;28;20029;-44
2022/06/20 03:12:07;;;;;;;4.65;3.72;;;;;;;;;;5027416;28;20029;-43
2022/06/20 03:14:47;;;;;;;7.75;3.80;;;;;;;;;;5031614;28;20041;-44
2022/06/20 03:17:16;;;;;;;4.63;3.53;;;;;;;;;;5030145;28;20076;-45
2022/06/20 03:19:46;;;;;;;5.95;3.45;;;;;;;;;;5030377;28;20025;-43
2022/06/20 03:22:16;;;;;;;6.43;3.83;;;;;;;;;;5022319;28;20036;-44
2022/06/20 03:24:43;;;;;;;3.83;3.38;;;;;;;;;;5027378;28;20037;-46
2022/06/20 03:27:16;;;;;;;5.13;3.55;;;;;;;;;;5036622;28;20025;-43
2022/06/20 03:29:44;;;;;;;3.97;3.33;;;;;;;;;;5031924;28;20026;-43
2022/06/20 03:32:10;;;;;;;4.70;3.25;;;;;;;;;;5031197;28;20029;-44
2022/06/20 03:34:36;;;;;;;5.65;3.22;;;;;;;;;;5027844;28;20021;-44
2022/06/20 03:37:02;;;;;;;7.30;3.70;;;;;;;;;;5025640;28;20105;-44
2022/06/20 03:39:29;;;;;;;6.95;3.45;;;;;;;;;;5030219;28;20033;-44
2022/06/20 03:41:54;;;;;;;3.63;3.03;;;;;;;;;;5025908;28;20029;-44
2022/06/20 03:44:28;;;;;;;3.67;2.97;;;;;;;;;;5025650;28;20029;-45
2022/06/20 03:47:03;;;;;;;4.78;3.53;;;;;;;;;;5029677;28;20060;-44
2022/06/20 03:49:43;;;;;;;4.68;3.60;;;;;;;;;;5027147;28;20025;-43
2022/06/20 03:52:18;;;;;;;3.95;3.60;;;;;;;;;;5030025;28;20067;-44
2022/06/20 03:54:52;;;;;;;5.70;3.97;;;;;;;;;;5027406;28;20500;-44
2022/06/20 03:57:23;;;;;;;9.50;3.55;;;;;;;;;;5026983;28;20042;-44
2022/06/20 04:00:05;;;;;;;5.80;3.40;;;;;;;;;;5033778;28;20017;-43
2022/06/20 04:02:41;;;;;;;10.82;3.72;;;;;;;;;;5028900;28;20390;-43
2022/06/20 04:05:18;;;;;;;10.43;3.55;;;;;;;;;;5030975;28;20018;-44
2022/06/20 04:08:09;;;;;;;9.15;3.72;;;;;;;;;;5028571;28;20486;-41
2022/06/20 04:11:00;;;;;;;5.18;3.67;;;;;;;;;;5027605;28;20075;-45
2022/06/20 04:13:47;;;;;;;4.97;3.20;;;;;;;;;;5023559;28;20025;-44
2022/06/20 04:16:22;;;;;;;6.60;3.60;;;;;;;;;;5028499;28;20041;-43
2022/06/20 04:19:00;;;;;;;4.93;3.25;;;;;;;;;;5030310;28;20120;-48
2022/06/20 04:21:36;;;;;;;5.25;3.50;;;;;;;;;;5027781;28;20045;-44
2022/06/20 04:24:20;;;;;;;6.97;3.72;;;;;;;;;;5029995;28;20029;-44
2022/06/20 04:26:58;;;;;;;3.58;3.13;;;;;;;;;;5027998;28;20038;-44
2022/06/20 04:29:46;;;;;;;11.07;3.13;;;;;;;;;;5030150;28;20034;-43
2022/06/20 04:32:38;;;;;;;6.20;3.20;;;;;;;;;;5032009;28;20397;-46
2022/06/20 04:35:12;;;;;;;11.38;3.90;;;;;;;;;;5031258;28;20573;-44
2022/06/20 04:37:42;;;;;;;6.18;3.60;;;;;;;;;;5034869;28;20041;-43
2022/06/20 04:40:19;;;;;;;4.00;3.30;;;;;;;;;;5027601;28;20041;-44
2022/06/20 04:42:47;;;;;;;7.03;3.75;;;;;;;;;;5029128;28;20041;-45
2022/06/20 04:45:21;;;;;;;4.15;3.38;;;;;;;;;;5026109;28;20032;-46
2022/06/20 04:47:56;;;;;;;4.93;3.00;;;;;;;;;;5034831;28;20045;-44
2022/06/20 04:50:25;;;;;;;11.52;3.40;;;;;;;;;;5031761;28;20037;-43
2022/06/20 04:52:53;;;;;;;6.07;2.92;;;;;;;;;;5037405;28;20393;-44
2022/06/20 04:55:24;;;;;;;5.00;2.65;;;;;;;;;;5031699;28;20065;-43
2022/06/20 04:57:51;;;;;;;6.30;3.00;;;;;;;;;;5028407;28;20474;-44
2022/06/20 05:00:27;;;;;;;3.80;2.60;;;;;;;;;;5029210;28;20299;-43
2022/06/20 05:02:54;;;;;;;5.85;2.90;;;;;;;;;;5036102;28;20033;-44
2022/06/20 05:05:24;;;;;;;3.60;2.50;;;;;;;;;;5032534;28;20116;-43
2022/06/20 05:07:50;;;;;;;6.00;2.83;;;;;;;;;;5030933;28;20033;-43
2022/06/20 05:10:21;;;;;;;6.70;2.97;;;;;;;;;;5027972;28;20037;-44
2022/06/20 05:12:57;;;;;;;4.80;2.60;;;;;;;;;;5030429;28;20074;-44
2022/06/20 05:15:39;;;;;;;4.03;2.80;;;;;;;;;;5024054;28;20502;-44
2022/06/20 05:18:14;;;;;;;3.08;2.53;;;;;;;;;;5028225;28;20045;-44
2022/06/20 05:20:41;;;;;;;6.43;3.03;;;;;;;;;;5027686;28;20029;-44
2022/06/20 05:23:45;;;;;;;4.20;2.45;;;;;;;;;;5017589;28;20033;-44
2022/06/20 05:26:21;;;;;;;10.23;2.92;;;;;;;;;;5017020;28;20441;-44
2022/06/20 05:28:51;;;;;;;6.85;2.92;;;;;;;;;;5026601;28;20116;-43
2022/06/20 05:31:28;;;;;;;6.25;3.08;;;;;;;;;;5020001;28;20036;-44
2022/06/20 05:34:11;;;;;;;7.10;3.08;;;;;;;;;;5029865;28;20521;-44
2022/06/20 05:36:49;;;;;;;5.65;3.28;;;;;;;;;;5025488;28;20488;-44
2022/06/20 05:39:23;;;;;;;4.85;2.60;;;;;;;;;;5025299;28;20029;-44
2022/06/20 05:41:50;;;;;;;10.50;2.80;;;;;;;;;;5032660;28;20034;-43
2022/06/20 05:44:16;;;;;;;3.90;2.50;;;;;;;;;;5028932;28;20053;-46
2022/06/20 05:46:50;;;;;;;8.23;2.47;;;;;;;;;;5035612;28;20489;-44
2022/06/20 05:49:27;;;;;;;6.18;2.78;;;;;;;;;;5018742;28;20033;-44
2022/06/20 05:51:55;;;;;;;6.53;2.95;;;;;;;;;;5021805;28;20102;-44
2022/06/20 05:54:32;;;;;;;4.40;2.80;;;;;;;;;;5034085;28;20056;-46
2022/06/20 05:57:10;;;;;;;11.05;2.72;;;;;;;;;;5033473;28;20030;-43
2022/06/20 05:59:42;;;;;;;4.47;2.38;;;;;;;;;;5023212;28;20099;-44
2022/06/20 06:02:23;;;;;;;3.55;2.42;;;;;;;;;;5022006;28;20152;-44
2022/06/20 06:05:04;;;;;;;4.43;2.22;;;;;;;;;;5025254;28;20043;-45
2022/06/20 06:07:36;;;;;;;10.52;2.45;;;;;;;;;;5030132;28;20597;-44
2022/06/20 06:10:31;;;;;;;3.92;2.53;;;;;;;;;;5031814;28;20044;-44
2022/06/20 06:13:03;;;;;;;4.28;2.70;;;;;;;;;;5029011;28;20041;-43
2022/06/20 06:15:34;;;;;;;10.05;2.50;;;;;;;;;;5029038;28;20033;-46
2022/06/20 06:18:07;;;;;;;8.18;2.42;;;;;;;;;;5033705;28;20116;-44
2022/06/20 06:20:34;;;;;;;7.30;2.42;;;;;;;;;;5029262;28;20382;-45
2022/06/20 06:23:06;;;;;;;5.35;2.47;;;;;;;;;;5035770;28;20056;-46
2022/06/20 06:25:38;;;;;;;4.10;2.30;;;;;;;;;;5031992;28;20033;-46
2022/06/20 06:28:11;;;;;;;5.60;2.75;;;;;;;;;;5027110;28;20037;-44
2022/06/20 06:30:53;;;;;;;10.63;2.47;;;;;;;;;;5032728;28;20586;-44
2022/06/20 06:34:11;;;;;;;6.05;2.17;;;;;;;;;;5027380;28;20056;-44
2022/06/20 06:36:48;;;;;;;3.80;2.20;;;;;;;;;;5023934;28;20050;-44
2022/06/20 06:39:25;;;;;;;2.47;2.13;;;;;;;;;;5035211;28;20048;-45
2022/06/20 06:41:56;;;;;;;6.00;2.17;;;;;;;;;;5027773;28;20465;-44
2022/06/20 06:44:35;;;;;;;3.95;2.25;;;;;;;;;;5032019;28;20208;-45
2022/06/20 06:47:02;;;;;;;4.10;2.28;;;;;;;;;;5028663;28;20037;-46
2022/06/20 06:49:31;;;;;;;6.25;2.17;;;;;;;;;;5029618;28;20029;-48
2022/06/20 06:52:16;;;;;;;4.65;1.90;;;;;;;;;;5026876;28;20501;-44
2022/06/20 06:54:42;;;;;;;3.30;2.03;;;;;;;;;;5031429;28;20513;-44
2022/06/20 06:57:32;;;;;;;4.05;2.35;;;;;;;;;;5030121;28;20127;-44
2022/06/20 07:00:04;;;;;;;7.90;2.00;;;;;;;;;;5030573;28;20041;-44
2022/06/20 07:02:37;;;;;;;6.50;3.00;;;;;;;;;;5029260;28;20421;-44
2022/06/20 07:05:15;;;;;;;7.57;2.40;;;;;;;;;;5028712;28;20449;-44
2022/06/20 07:07:46;;;;;;;8.45;2.50;;;;;;;;;;5032514;28;20120;-44
2022/06/20 07:10:32;;;;;;;3.63;2.13;;;;;;;;;;5030234;28;20045;-43
2022/06/20 07:13:07;;;;;;;5.15;2.45;;;;;;;;;;5027632;28;20136;-44
2022/06/20 07:15:34;;;;;;;3.28;2.15;;;;;;;;;;5030453;28;20025;-45
2022/06/20 07:18:11;;;;;;;4.50;2.40;;;;;;;;;;5030348;28;20049;-44
2022/06/20 07:20:40;;;;;;;3.85;2.30;;;;;;;;;;5022560;28;20032;-44
2022/06/20 07:23:12;;;;;;;3.75;2.30;;;;;;;;;;5026047;28;20030;-44
2022/06/20 07:25:45;;;;;;;9.40;2.30;;;;;;;;;;5023684;28;20060;-44
2022/06/20 07:28:14;;;;;;;4.38;2.08;;;;;;;;;;5026870;28;20033;-44
2022/06/20 07:30:45;;;;;;;7.05;2.75;;;;;;;;;;5028873;28;20482;-44
2022/06/20 07:33:21;;;;;;;5.00;2.38;;;;;;;;;;5028344;28;20140;-44
2022/06/20 07:35:53;;;;;;;7.53;2.03;;;;;;;;;;5029828;28;20021;-47
2022/06/20 07:38:21;;;;;;;;;;;;;;;;;;5033545;28;20456;-44
2022/06/20 07:41:09;;;;;;;6.90;2.25;;;;;;;;;;5028810;28;19960;-44
2022/06/20 07:43:46;;;;;;;10.38;2.53;;;;;;;;;;5032062;28;20017;-44
2022/06/20 07:46:17;;;;;;;8.13;2.22;;;;;;;;;;5029838;28;20022;-44
2022/06/20 07:48:45;;;;;;;6.70;2.55;;;;;;;;;;5024855;28;21530;-45
2022/06/20 07:51:17;;;;;;;5.43;2.40;;;;;;;;;;5028321;28;20077;-44
2022/06/20 07:53:49;;;;;;;6.28;2.42;;;;;;;;;;5024653;28;20446;-45
2022/06/20 07:56:26;;;;;;;6.13;2.10;;;;;;;;;;5028744;28;20037;-46
2022/06/20 07:58:59;;;;;;;8.73;2.70;;;;;;;;;;5039737;28;20075;-44
2022/06/20 08:01:29;;;;;;;5.85;2.20;;;;;;;;;;5031265;28;20037;-45
2022/06/20 08:04:03;;;;;;;9.40;2.88;;;;;;;;;;5036201;28;20036;-44
2022/06/20 08:06:49;;;;;;;7.55;2.20;;;;;;;;;;5026796;28;20033;-45
2022/06/20 08:09:24;;;;;;;3.83;2.40;;;;;;;;;;5026892;28;20037;-45
2022/06/20 08:12:02;;;;;;;12.52;2.70;;;;;;;;;;5027801;28;20037;-44
2022/06/20 08:14:42;;;;;;;11.50;2.78;;;;;;;;;;5031231;28;20057;-44
2022/06/20 08:17:10;;;;;;;7.70;2.60;;;;;;;;;;5027175;28;20064;-48
2022/06/20 08:19:39;;;;;;;9.63;2.60;;;;;;;;;;5033324;28;20119;-44
2022/06/20 08:22:19;;;;;;;6.30;2.35;;;;;;;;;;5034149;28;20490;-44
2022/06/20 08:25:16;;;;;;;8.02;2.80;;;;;;;;;;5032187;28;20086;-44
2022/06/20 08:27:43;;;;;;;6.97;2.25;;;;;;;;;;5021885;28;20049;-44
2022/06/20 08:30:14;;;;;;;9.50;2.45;;;;;;;;;;5034063;28;20025;-45
2022/06/20 08:32:59;;;;;;;11.03;2.30;;;;;;;;;;5028452;28;20018;-44
2022/06/20 08:35:34;;;;;;;7.93;2.63;;;;;;;;;;5032999;28;20045;-45
2022/06/20 08:38:26;;;;;;;4.82;2.10;;;;;;;;;;5037678;28;20071;-44
2022/06/20 08:40:54;;;;;;;13.45;2.50;;;;;;;;;;5031101;28;20055;-44
2022/06/20 08:43:45;;;;;;;6.88;2.38;;;;;;;;;;5024954;28;20364;-45
2022/06/20 08:46:41;;;;;;;6.53;2.33;;;;;;;;;;5031462;28;20042;-44
2022/06/20 08:49:35;;;;;;;7.97;2.35;;;;;;;;;;5026607;28;20386;-44
2022/06/20 08:52:19;;;;;;;11.25;3.65;;;;;;;;;;5030457;28;20041;-44
2022/06/20 08:55:21;;;;;;;7.40;2.95;;;;;;;;;;5027572;28;20049;-44
2022/06/20 08:58:36;;;;;;;7.75;2.45;;;;;;;;;;5032844;28;20521;-45
2022/06/20 09:01:13;;;;;;;9.18;2.42;;;;;;;;;;5030687;28;20049;-45
2022/06/20 09:04:03;;;;;;;3.88;2.50;;;;;;;;;;5032301;28;20057;-44
2022/06/20 09:07:07;;;;;;;8.93;2.50;;;;;;;;;;5028926;28;20124;-44
2022/06/20 09:09:51;;;;;;;7.55;2.47;;;;;;;;;;5027065;28;20473;-45
2022/06/20 09:12:31;;;;;;;6.95;2.70;;;;;;;;;;5031050;28;20438;-44
2022/06/20 09:15:15;;;;;;;5.32;2.33;;;;;;;;;;5030892;28;20120;-44
2022/06/20 09:17:59;;;;;;;8.45;2.50;;;;;;;;;;5030754;28;20533;-44
2022/06/20 09:20:30;;;;;;;6.53;2.83;;;;;;;;;;5032912;28;20037;-45
2022/06/20 09:23:01;;;;;;;12.48;2.63;;;;;;;;;;5017706;28;20098;-46
2022/06/20 09:25:27;;;;;;;12.55;2.40;;;;;;;;;;5034312;28;20029;-44
2022/06/20 09:28:08;;;;;;;16.27;2.60;;;;;;;;;;5032135;28;20067;-44
2022/06/20 09:31:06;;;;;;;3.20;2.50;;;;;;;;;;5025568;28;20135;-46
2022/06/20 09:33:45;;;;;;;7.03;2.67;;;;;;;;;;5031876;28;20390;-45
2022/06/20 09:36:29;;;;;;;9.73;2.50;;;;;;;;;;5035241;28;20107;-46
2022/06/20 09:39:23;;;;;;;9.20;2.90;;;;;;;;;;5032072;28;20038;-45
2022/06/20 09:41:57;;;;;;;3.70;2.55;;;;;;;;;;5026990;28;20032;-45
2022/06/20 09:44:26;;;;;;;5.65;2.42;;;;;;;;;;5027426;28;20064;-46
2022/06/20 09:47:28;;;;;;;5.40;2.60;;;;;;;;;;5033643;28;20037;-44
2022/06/20 09:50:06;;;;;;;5.28;2.28;;;;;;;;;;5030228;28;20032;-44
2022/06/20 09:52:44;;;;;;;6.78;2.92;;;;;;;;;;5027240;28;20030;-44
2022/06/20 09:55:09;;;;;;;4.07;2.50;;;;;;;;;;5027799;28;20036;-46
2022/06/20 09:57:35;;;;;;;7.22;2.90;;;;;;;;;;5025254;28;20071;-44
2022/06/20 10:00:15;;;;;;;4.50;2.53;;;;;;;;;;5029500;28;20034;-44
2022/06/20 10:03:05;;;;;;;6.18;2.67;;;;;;;;;;5026515;28;20036;-47
2022/06/20 10:06:21;;;;;;;6.13;2.83;;;;;;;;;;5026697;28;20045;-47
2022/06/20 10:08:50;;;;;;;7.22;2.47;;;;;;;;;;5011800;28;20117;-44
2022/06/20 10:11:35;;;;;;;3.92;2.22;;;;;;;;;;5006077;28;20069;-44
2022/06/20 10:14:07;;;;;;;7.45;2.20;;;;;;;;;;5007533;28;20039;-45
2022/06/20 10:16:36;;;;;;;;;;;;;;;;;;5014463;28;20505;-44
2022/06/20 10:19:24;;;;;;;6.38;2.60;;;;;;;;;;5007296;28;19971;-48
2022/06/20 10:22:02;;;;;;;9.00;2.38;;;;;;;;;;5006705;28;20125;-44
2022/06/20 10:24:44;;;;;;;4.50;2.35;;;;;;;;;;5007816;28;20034;-47
2022/06/20 10:27:34;;;;;;;5.10;2.28;;;;;;;;;;5003702;28;20029;-48
2022/06/20 10:30:20;;;;;;;2.60;2.17;;;;;;;;;;5012668;28;20077;-48
2022/06/20 10:33:04;;;;;;;7.80;2.28;;;;;;;;;;5009040;28;20040;-44
2022/06/20 10:35:50;;;;;;;11.02;2.53;;;;;;;;;;5006698;28;20022;-44
2022/06/20 10:38:34;;;;;;;10.27;2.33;;;;;;;;;;5008792;28;20034;-44
2022/06/20 10:41:06;;;;;;;4.32;1.90;;;;;;;;;;5008155;28;20034;-45
2022/06/20 10:43:48;;;;;;;9.30;2.30;;;;;;;;;;5014682;28;20024;-44
2022/06/20 10:47:06;;;;;;;5.53;2.42;;;;;;;;;;5028384;28;20152;-44
2022/06/20 10:50:03;;;;;;;6.43;2.38;;;;;;;;;;5004584;28;20040;-44
2022/06/20 10:52:56;;;;;;;3.45;2.50;;;;;;;;;;5009218;28;20034;-44
2022/06/20 10:55:39;;;;;;;5.50;2.13;;;;;;;;;;5004088;28;20129;-45
2022/06/20 10:58:37;;;;;;;5.97;2.45;;;;;;;;;;5006316;28;20042;-45
2022/06/20 11:01:28;;;;;;;6.80;2.60;;;;;;;;;;5010644;28;20058;-45
2022/06/20 11:04:14;;;;;;;7.63;2.55;;;;;;;;;;5006920;28;20041;-44
2022/06/20 11:07:05;;;;;;;5.35;2.50;;;;;;;;;;5008921;28;20091;-44
2022/06/20 11:09:40;;;;;;;11.13;2.42;;;;;;;;;;5012908;28;20026;-45
2022/06/20 11:12:31;;;;;;;3.25;2.20;;;;;;;;;;5008487;28;20037;-45
2022/06/20 11:15:15;;;;;;;7.35;2.15;;;;;;;;;;5005688;28;20085;-44
2022/06/20 11:18:03;;;;;;;12.20;2.50;;;;;;;;;;5005391;28;20483;-44
2022/06/20 11:20:29;;;;;;;6.32;2.75;;;;;;;;;;5006030;28;20069;-44
2022/06/20 11:23:12;;;;;;;3.35;2.10;;;;;;;;;;5008282;28;20127;-43
2022/06/20 11:26:07;;;;;;;6.25;2.38;;;;;;;;;;5018238;28;20514;-44
2022/06/20 11:28:50;;;;;;;5.47;1.88;;;;;;;;;;5028624;28;20043;-45
2022/06/20 11:31:34;;;;;;;5.35;2.58;;;;;;;;;;5027088;28;20037;-44
2022/06/20 11:34:11;;;;;;;5.75;2.35;;;;;;;;;;5027787;28;20117;-46
2022/06/20 11:37:11;;;;;;;6.88;2.40;;;;;;;;;;5026565;28;20064;-48
2022/06/20 11:39:45;;;;;;;7.43;2.30;;;;;;;;;;5020903;28;20036;-46
2022/06/20 11:42:26;;;;;;;7.25;2.38;;;;;;;;;;5029025;28;20509;-45
2022/06/20 11:45:16;;;;;;;4.03;2.28;;;;;;;;;;5026475;28;20041;-44
2022/06/20 11:47:57;;;;;;;5.82;2.38;;;;;;;;;;5027003;28;20494;-44
2022/06/20 11:50:38;;;;;;;5.70;2.37;;;;;;;;;;5026293;28;20033;-44
2022/06/20 11:53:22;;;;;;;7.43;1.80;;;;;;;;;;5031406;28;20053;-44
2022/06/20 11:56:09;;;;;;;3.75;1.73;;;;;;;;;;5028056;28;20103;-45
2022/06/20 11:59:14;;;;;;;3.95;2.15;;;;;;;;;;5033677;28;20402;-44
2022/06/20 12:02:18;;;;;;;6.53;2.20;;;;;;;;;;5029181;28;20029;-46
2022/06/20 12:04:54;;;;;;;5.05;2.33;;;;;;;;;;5031786;28;20477;-44
2022/06/20 12:07:25;;;;;;;2.78;2.05;;;;;;;;;;5024429;28;20025;-44
2022/06/20 12:10:12;;;;;;;5.90;2.00;;;;;;;;;;5022451;28;20033;-44
2022/06/20 12:13:04;;;;;;;4.93;2.47;;;;;;;;;;5030032;28;20034;-44
2022/06/20 12:15:39;;;;;;;4.13;2.28;;;;;;;;;;5023491;28;20029;-44
2022/06/20 12:18:39;;;;;;;6.15;2.15;;;;;;;;;;5027984;28;20039;-44
2022/06/20 12:24:05;;;;;;;6.13;2.40;;;;;;;;;;5028114;28;20405;-44
2022/06/20 12:26:35;;;;;;;2.97;1.80;;;;;;;;;;5025691;28;20031;-45
2022/06/20 12:29:08;;;;;;;10.73;2.30;;;;;;;;;;5035130;28;20056;-44
2022/06/20 12:31:37;;;;;;;3.38;2.10;;;;;;;;;;5033295;28;20120;-47
2022/06/20 12:34:19;;;;;;;4.53;1.83;;;;;;;;;;5027465;28;20029;-44
2022/06/20 12:37:04;;;;;;;6.30;1.75;;;;;;;;;;5024553;28;20422;-44
2022/06/20 12:39:35;;;;;;;3.35;2.30;;;;;;;;;;5027505;28;20025;-44
2022/06/20 12:42:15;;;;;;;4.18;1.80;;;;;;;;;;5031783;28;20371;-44
2022/06/20 12:44:58;;;;;;;3.47;2.22;;;;;;;;;;5025446;28;20037;-44
2022/06/20 12:47:32;;;;;;;8.75;2.17;;;;;;;;;;5031179;28;20040;-46
2022/06/20 12:50:24;;;;;;;3.75;2.03;;;;;;;;;;5033262;28;20048;-47
2022/06/20 12:53:04;;;;;;;6.10;2.08;;;;;;;;;;5034196;28;20021;-44
2022/06/20 12:55:52;;;;;;;3.40;2.00;;;;;;;;;;5034458;28;20088;-45
2022/06/20 12:58:38;;;;;;;4.80;1.85;;;;;;;;;;5031040;28;20038;-44
2022/06/20 13:01:35;;;;;;;5.57;2.33;;;;;;;;;;5009766;28;20140;-44
2022/06/20 13:04:07;;;;;;;3.90;1.88;;;;;;;;;;5007459;28;21111;-44
2022/06/20 13:06:38;;;;;;;4.22;1.98;;;;;;;;;;5010931;28;20403;-49
2022/06/20 13:09:40;;;;;;;7.13;1.92;;;;;;;;;;5006085;28;20129;-45
2022/06/20 13:12:25;;;;;;;4.63;2.08;;;;;;;;;;5009221;28;20064;-47
2022/06/20 13:15:18;;;;;;;5.80;2.15;;;;;;;;;;5007336;28;20180;-44
2022/06/20 13:18:08;;;;;;;4.15;2.13;;;;;;;;;;5012399;28;20053;-44
2022/06/20 13:20:49;;;;;;;4.28;1.50;;;;;;;;;;5009433;28;20060;-46
2022/06/20 13:23:14;;;;;;;4.05;1.83;;;;;;;;;;5009930;28;20501;-44
2022/06/20 13:25:54;;;;;;;6.35;1.67;;;;;;;;;;5013449;28;20246;-44
2022/06/20 13:28:34;;;;;;;3.38;1.75;;;;;;;;;;5005375;28;20388;-44
2022/06/20 13:31:11;;;;;;;6.63;1.95;;;;;;;;;;5009237;28;20037;-45
2022/06/20 13:33:49;;;;;;;3.83;1.70;;;;;;;;;;5011403;28;20675;-44
2022/06/20 13:36:29;;;;;;;4.25;1.70;;;;;;;;;;5010209;28;20552;-44
2022/06/20 13:38:55;;;;;;;5.55;2.00;;;;;;;;;;5026080;28;20041;-45
2022/06/20 13:41:30;;;;;;;6.03;1.80;;;;;;;;;;5033275;28;20021;-46
2022/06/20 13:44:30;;;;;;;6.40;2.20;;;;;;;;;;5031418;28;20482;-44
2022/06/20 13:47:02;;;;;;;4.32;1.98;;;;;;;;;;5023306;28;20166;-44
2022/06/20 13:50:06;;;;;;;5.20;1.90;;;;;;;;;;5031625;28;20367;-46
2022/06/20 13:52:48;;;;;;;4.65;1.80;;;;;;;;;;5049541;28;20048;-44
2022/06/20 13:55:25;;;;;;;3.45;1.60;;;;;;;;;;5046201;28;20103;-44
2022/06/20 13:58:14;;;;;;;4.90;1.80;;;;;;;;;;5051138;28;20033;-44
2022/06/20 14:00:41;;;;;;;5.90;2.00;;;;;;;;;;5048938;28;20045;-45
2022/06/20 14:03:26;;;;;;;6.13;1.85;;;;;;;;;;5050885;28;20064;-47
2022/06/20 14:06:07;;;;;;;11.90;2.10;;;;;;;;;;5049170;28;20032;-44
2022/06/20 14:08:33;;;;;;;3.07;1.97;;;;;;;;;;5048742;28;20048;-44
2022/06/20 14:11:40;;;;;;;2.38;1.90;;;;;;;;;;5047990;28;20040;-44
2022/06/20 14:14:44;;;;;;;5.95;1.88;;;;;;;;;;5055499;28;20036;-44
2022/06/20 14:17:12;;;;;;;4.50;2.03;;;;;;;;;;5053106;28;20059;-44
2022/06/20 14:19:44;;;;;;;7.30;1.85;;;;;;;;;;5050761;28;20032;-45
2022/06/20 14:22:33;;;;;;;4.72;1.73;;;;;;;;;;5047368;28;20029;-45
2022/06/20 14:25:03;;;;;;;5.85;1.88;;;;;;;;;;5052222;28;20029;-46
2022/06/20 14:27:31;;;;;;;10.20;2.00;;;;;;;;;;5048166;28;20083;-44
2022/06/20 14:30:04;;;;;;;3.42;1.88;;;;;;;;;;5035468;28;20076;-44
2022/06/20 14:32:49;;;;;;;2.20;2.00;;;;;;;;;;5031446;28;20501;-44
2022/06/20 14:35:20;;;;;;;1.88;1.70;;;;;;;;;;5027147;28;20091;-45
2022/06/20 14:37:50;;;;;;;;;;;;;;;;;;5030016;28;20026;-42
2022/06/20 14:40:22;;;;;;;2.67;1.73;;;;;;;;;;5028074;28;19924;-44
2022/06/20 14:43:00;;;;;;;5.10;1.98;;;;;;;;;;5027623;28;20072;-45
2022/06/20 14:45:33;;;;;;;4.10;1.75;;;;;;;;;;5031538;28;20565;-44
2022/06/20 14:48:01;;;;;;;3.63;1.75;;;;;;;;;;5026075;28;20033;-44
2022/06/20 14:50:30;;;;;;;3.00;1.67;;;;;;;;;;5026843;28;20074;-44
2022/06/20 14:52:58;;;;;;;2.97;1.63;;;;;;;;;;5029471;28;20036;-45
2022/06/20 14:55:49;;;;;;;3.85;1.98;;;;;;;;;;5025317;28;20092;-44
2022/06/20 14:58:43;;;;;;;11.60;2.03;;;;;;;;;;5029796;28;20604;-45
2022/06/20 15:01:13;;;;;;;2.83;1.90;;;;;;;;;;4988163;28;20054;-46
2022/06/20 15:04:16;;;;;;;2.25;1.80;;;;;;;;;;4986323;28;20038;-44
2022/06/20 15:06:51;;;;;;;2.97;2.00;;;;;;;;;;4988123;28;20061;-44
2022/06/20 15:09:23;;;;;;;2.42;1.60;;;;;;;;;;4983349;28;20066;-44
2022/06/20 15:12:10;;;;;;;5.07;1.85;;;;;;;;;;4994575;28;20523;-44
2022/06/20 15:14:55;;;;;;;4.47;1.75;;;;;;;;;;4987072;28;20476;-44
2022/06/20 15:17:28;;;;;;;4.68;1.77;;;;;;;;;;4991627;28;20077;-44
2022/06/20 15:20:17;;;;;;;4.70;1.77;;;;;;;;;;4992278;28;20085;-45
2022/06/20 15:22:56;;;;;;;3.13;1.83;;;;;;;;;;4981735;28;20112;-47
2022/06/20 15:25:42;;;;;;;4.13;2.33;;;;;;;;;;4984002;28;20129;-44
2022/06/20 15:28:17;;;;;;;2.72;2.13;;;;;;;;;;4987502;28;20034;-45
2022/06/20 15:31:11;;;;;;;4.88;2.10;;;;;;;;;;4988344;28;20030;-44
2022/06/20 15:33:49;;;;;;;4.75;2.25;;;;;;;;;;4984673;28;20052;-43
2022/06/20 15:36:22;;;;;;;4.70;1.90;;;;;;;;;;4985561;28;20038;-44
2022/06/20 15:39:21;;;;;;;2.03;1.83;;;;;;;;;;5016216;28;20696;-44
2022/06/20 15:45:11;;;;;;;2.70;1.90;;;;;;;;;;5028678;28;20064;-44
2022/06/20 15:47:48;;;;;;;3.15;2.10;;;;;;;;;;5029425;28;20049;-44
2022/06/20 15:50:28;;;;;;;2.88;2.17;;;;;;;;;;5028605;28;20029;-44
2022/06/20 15:52:56;;;;;;;5.43;2.15;;;;;;;;;;5027009;28;20366;-44
2022/06/20 15:56:08;;;;;;;3.17;1.75;;;;;;;;;;5013953;28;20046;-44